Aviation Digital Data Service (ADDS)

Output produced by METARs form (1803 UTC 25 March 2019)
found at http://www.aviationweather.gov/metar/data/
 
METAR text: NGFU 251800Z VRB01KT 9999 FEW019TCU BKN310 28/24 Q1009
Conditions at: NGFU (FUNAFUTI TUVALU , FJ) observed 1800 UTC 25 March 2019
Temperature: 28.0°C (82°F)
Dewpoint: 24.0°C (75°F) [RH = 79%]
Pressure (altimeter): 29.79 inches Hg (1009.0 mb)
Winds: variable direction winds at 1 MPH (1 knots; 0.5 m/s)
Visibility: 6 or more miles (10+ km)
Ceiling: 31000 feet AGL
Clouds: few clouds at 1900 feet AGL
broken clouds at 31000 feet AGL
Weather: no significant weather observed at this time

METAR text: NGFU 251700Z VRB02KT 9999 SCT019 BKN110 28/23 Q1009
Conditions at: NGFU (FUNAFUTI TUVALU , FJ) observed 1700 UTC 25 March 2019
Temperature: 28.0°C (82°F)
Dewpoint: 23.0°C (73°F) [RH = 74%]
Pressure (altimeter): 29.79 inches Hg (1009.0 mb)
Winds: variable direction winds at 2 MPH (2 knots; 1.0 m/s)
Visibility: 6 or more miles (10+ km)
Ceiling: 11000 feet AGL
Clouds: scattered clouds at 1900 feet AGL
broken clouds at 11000 feet AGL
Weather: no significant weather observed at this time

METAR text: NGFU 251600Z 30008KT 9999 SCT018 BKN100 28/23 Q1009
Conditions at: NGFU (FUNAFUTI TUVALU , FJ) observed 1600 UTC 25 March 2019
Temperature: 28.0°C (82°F)
Dewpoint: 23.0°C (73°F) [RH = 74%]
Pressure (altimeter): 29.79 inches Hg (1009.0 mb)
Winds: from the WNW (300 degrees) at 9 MPH (8 knots; 4.1 m/s)
Visibility: 6 or more miles (10+ km)
Ceiling: 10000 feet AGL
Clouds: scattered clouds at 1800 feet AGL
broken clouds at 10000 feet AGL
Weather: no significant weather observed at this time

METAR text: NGFU 251500Z 00000KT 9999 FEW019TCU BKN310 28/23 Q1009
Conditions at: NGFU (FUNAFUTI TUVALU , FJ) observed 1500 UTC 25 March 2019
Temperature: 28.0°C (82°F)
Dewpoint: 23.0°C (73°F) [RH = 74%]
Pressure (altimeter): 29.79 inches Hg (1009.0 mb)
Winds: calm
Visibility: 6 or more miles (10+ km)
Ceiling: 31000 feet AGL
Clouds: few clouds at 1900 feet AGL
broken clouds at 31000 feet AGL
Weather: no significant weather observed at this time

METAR text: NGFU 251400Z VRB02KT 9999 FEW019TCU BKN310 29/24 Q1009
Conditions at: NGFU (FUNAFUTI TUVALU , FJ) observed 1400 UTC 25 March 2019
Temperature: 29.0°C (84°F)
Dewpoint: 24.0°C (75°F) [RH = 74%]
Pressure (altimeter): 29.79 inches Hg (1009.0 mb)
Winds: variable direction winds at 2 MPH (2 knots; 1.0 m/s)
Visibility: 6 or more miles (10+ km)
Ceiling: 31000 feet AGL
Clouds: few clouds at 1900 feet AGL
broken clouds at 31000 feet AGL
Weather: no significant weather observed at this time

METAR text: NGFU 251300Z VRB02KT 9999 FEW020 BKN300 29/23 Q1010
Conditions at: NGFU (FUNAFUTI TUVALU , FJ) observed 1300 UTC 25 March 2019
Temperature: 29.0°C (84°F)
Dewpoint: 23.0°C (73°F) [RH = 70%]
Pressure (altimeter): 29.82 inches Hg (1010.0 mb)
Winds: variable direction winds at 2 MPH (2 knots; 1.0 m/s)
Visibility: 6 or more miles (10+ km)
Ceiling: 30000 feet AGL
Clouds: few clouds at 2000 feet AGL
broken clouds at 30000 feet AGL
Weather: no significant weather observed at this time

METAR text: NGFU 251200Z 00000KT 9999 FEW020 SCT110 BKN300 29/25 Q1011
Conditions at: NGFU (FUNAFUTI TUVALU , FJ) observed 1200 UTC 25 March 2019
Temperature: 29.0°C (84°F)
Dewpoint: 25.0°C (77°F) [RH = 79%]
Pressure (altimeter): 29.85 inches Hg (1011.0 mb)
Winds: calm
Visibility: 6 or more miles (10+ km)
Ceiling: 30000 feet AGL
Clouds: few clouds at 2000 feet AGL
scattered clouds at 11000 feet AGL
broken clouds at 30000 feet AGL
Weather: no significant weather observed at this time

METAR text: NGFU 251100Z 00000KT 9999 FEW019 BKN300 29/25 Q1011
Conditions at: NGFU (FUNAFUTI TUVALU , FJ) observed 1100 UTC 25 March 2019
Temperature: 29.0°C (84°F)
Dewpoint: 25.0°C (77°F) [RH = 79%]
Pressure (altimeter): 29.85 inches Hg (1011.0 mb)
Winds: calm
Visibility: 6 or more miles (10+ km)
Ceiling: 30000 feet AGL
Clouds: few clouds at 1900 feet AGL
broken clouds at 30000 feet AGL
Weather: no significant weather observed at this time

METAR text: NGFU 251000Z 02005KT 9999 -SHRA SCT019 SCT300 29/25 Q1011
Conditions at: NGFU (FUNAFUTI TUVALU , FJ) observed 1000 UTC 25 March 2019
Temperature: 29.0°C (84°F)
Dewpoint: 25.0°C (77°F) [RH = 79%]
Pressure (altimeter): 29.85 inches Hg (1011.0 mb)
Winds: from the NNE (20 degrees) at 6 MPH (5 knots; 2.6 m/s)
Visibility: 6 or more miles (10+ km)
Ceiling: at least 12,000 feet AGL
Clouds: scattered clouds at 1900 feet AGL
scattered clouds at 30000 feet AGL
Weather: -SHRA  (light rain showers)

METAR text: NGFU 250900Z VRB01KT 9999 FEW020 SCT310 29/25 Q1010
Conditions at: NGFU (FUNAFUTI TUVALU , FJ) observed 0900 UTC 25 March 2019
Temperature: 29.0°C (84°F)
Dewpoint: 25.0°C (77°F) [RH = 79%]
Pressure (altimeter): 29.82 inches Hg (1010.0 mb)
Winds: variable direction winds at 1 MPH (1 knots; 0.5 m/s)
Visibility: 6 or more miles (10+ km)
Ceiling: at least 12,000 feet AGL
Clouds: few clouds at 2000 feet AGL
scattered clouds at 31000 feet AGL
Weather: no significant weather observed at this time

METAR text: NGFU 250800Z VRB02KT 9999 FEW020 BKN300 29/25 Q1010
Conditions at: NGFU (FUNAFUTI TUVALU , FJ) observed 0800 UTC 25 March 2019
Temperature: 29.0°C (84°F)
Dewpoint: 25.0°C (77°F) [RH = 79%]
Pressure (altimeter): 29.82 inches Hg (1010.0 mb)
Winds: variable direction winds at 2 MPH (2 knots; 1.0 m/s)
Visibility: 6 or more miles (10+ km)
Ceiling: 30000 feet AGL
Clouds: few clouds at 2000 feet AGL
broken clouds at 30000 feet AGL
Weather: no significant weather observed at this time

METAR text: NGFU 250700Z VRB01KT 9999 FEW020 BKN310 30/24 Q1009
Conditions at: NGFU (FUNAFUTI TUVALU , FJ) observed 0700 UTC 25 March 2019
Temperature: 30.0°C (86°F)
Dewpoint: 24.0°C (75°F) [RH = 70%]
Pressure (altimeter): 29.79 inches Hg (1009.0 mb)
Winds: variable direction winds at 1 MPH (1 knots; 0.5 m/s)
Visibility: 6 or more miles (10+ km)
Ceiling: 31000 feet AGL
Clouds: few clouds at 2000 feet AGL
broken clouds at 31000 feet AGL
Weather: no significant weather observed at this time

METAR text: NGFU 250600Z 28003KT 9999 FEW020 BKN310 30/24 Q1008
Conditions at: NGFU (FUNAFUTI TUVALU , FJ) observed 0600 UTC 25 March 2019
Temperature: 30.0°C (86°F)
Dewpoint: 24.0°C (75°F) [RH = 70%]
Pressure (altimeter): 29.76 inches Hg (1008.0 mb)
Winds: from the W (280 degrees) at 3 MPH (3 knots; 1.5 m/s)
Visibility: 6 or more miles (10+ km)
Ceiling: 31000 feet AGL
Clouds: few clouds at 2000 feet AGL
broken clouds at 31000 feet AGL
Weather: no significant weather observed at this time

METAR text: NGFU 250500Z 31004KT 9999 FEW019 BKN310 31/24 Q1008
Conditions at: NGFU (FUNAFUTI TUVALU , FJ) observed 0500 UTC 25 March 2019
Temperature: 31.0°C (88°F)
Dewpoint: 24.0°C (75°F) [RH = 66%]
Pressure (altimeter): 29.76 inches Hg (1008.0 mb)
Winds: from the NW (310 degrees) at 5 MPH (4 knots; 2.1 m/s)
Visibility: 6 or more miles (10+ km)
Ceiling: 31000 feet AGL
Clouds: few clouds at 1900 feet AGL
broken clouds at 31000 feet AGL
Weather: no significant weather observed at this time

METAR text: NGFU 250400Z 30004KT 9999 FEW019TCU BKN310 32/25 Q1008
Conditions at: NGFU (FUNAFUTI TUVALU , FJ) observed 0400 UTC 25 March 2019
Temperature: 32.0°C (90°F)
Dewpoint: 25.0°C (77°F) [RH = 67%]
Pressure (altimeter): 29.76 inches Hg (1008.0 mb)
Winds: from the WNW (300 degrees) at 5 MPH (4 knots; 2.1 m/s)
Visibility: 6 or more miles (10+ km)
Ceiling: 31000 feet AGL
Clouds: few clouds at 1900 feet AGL
broken clouds at 31000 feet AGL
Weather: no significant weather observed at this time

METAR text: NGFU 250300Z 32005KT 9999 SCT018TCU BKN310 32/24 Q1008
Conditions at: NGFU (FUNAFUTI TUVALU , FJ) observed 0300 UTC 25 March 2019
Temperature: 32.0°C (90°F)
Dewpoint: 24.0°C (75°F) [RH = 63%]
Pressure (altimeter): 29.76 inches Hg (1008.0 mb)
Winds: from the NW (320 degrees) at 6 MPH (5 knots; 2.6 m/s)
Visibility: 6 or more miles (10+ km)
Ceiling: 31000 feet AGL
Clouds: scattered clouds at 1800 feet AGL
broken clouds at 31000 feet AGL
Weather: no significant weather observed at this time

METAR text: NGFU 250200Z 31004KT 9999 SCT018TCU BKN310 32/26 Q1008
Conditions at: NGFU (FUNAFUTI TUVALU , FJ) observed 0200 UTC 25 March 2019
Temperature: 32.0°C (90°F)
Dewpoint: 26.0°C (79°F) [RH = 71%]
Pressure (altimeter): 29.76 inches Hg (1008.0 mb)
Winds: from the NW (310 degrees) at 5 MPH (4 knots; 2.1 m/s)
Visibility: 6 or more miles (10+ km)
Ceiling: 31000 feet AGL
Clouds: scattered clouds at 1800 feet AGL
broken clouds at 31000 feet AGL
Weather: no significant weather observed at this time

METAR text: NGFU 250100Z VRB02KT 9999 SCT018TCU BKN310 31/24 Q1009
Conditions at: NGFU (FUNAFUTI TUVALU , FJ) observed 0100 UTC 25 March 2019
Temperature: 31.0°C (88°F)
Dewpoint: 24.0°C (75°F) [RH = 66%]
Pressure (altimeter): 29.79 inches Hg (1009.0 mb)
Winds: variable direction winds at 2 MPH (2 knots; 1.0 m/s)
Visibility: 6 or more miles (10+ km)
Ceiling: 31000 feet AGL
Clouds: scattered clouds at 1800 feet AGL
broken clouds at 31000 feet AGL
Weather: no significant weather observed at this time

METAR text: NGFU 250000Z 33004KT 9999 VCSH SCT018TCU BKN110 31/23 Q1010
Conditions at: NGFU (FUNAFUTI TUVALU , FJ) observed 0000 UTC 25 March 2019
Temperature: 31.0°C (88°F)
Dewpoint: 23.0°C (73°F) [RH = 63%]
Pressure (altimeter): 29.82 inches Hg (1010.0 mb)
Winds: from the NNW (330 degrees) at 5 MPH (4 knots; 2.1 m/s)
Visibility: 6 or more miles (10+ km)
Ceiling: 11000 feet AGL
Clouds: scattered clouds at 1800 feet AGL
broken clouds at 11000 feet AGL
Weather: VCSH  (showers in vicinity)

METAR text: NGFU 252300Z 35004KT 9999 FEW019TCU BKN310 32/25 Q1010
Conditions at: NGFU (FUNAFUTI TUVALU , FJ) observed 2300 UTC 24 March 2019
Temperature: 32.0°C (90°F)
Dewpoint: 25.0°C (77°F) [RH = 67%]
Pressure (altimeter): 29.82 inches Hg (1010.0 mb)
Winds: from the N (350 degrees) at 5 MPH (4 knots; 2.1 m/s)
Visibility: 6 or more miles (10+ km)
Ceiling: 31000 feet AGL
Clouds: few clouds at 1900 feet AGL
broken clouds at 31000 feet AGL
Weather: no significant weather observed at this time

METAR text: NGFU 242200Z 05003KT 9999 FEW019TCU SCT310 32/26 Q1011
Conditions at: NGFU (FUNAFUTI TUVALU , FJ) observed 2200 UTC 24 March 2019
Temperature: 32.0°C (90°F)
Dewpoint: 26.0°C (79°F) [RH = 71%]
Pressure (altimeter): 29.85 inches Hg (1011.0 mb)
Winds: from the NE (50 degrees) at 3 MPH (3 knots; 1.5 m/s)
Visibility: 6 or more miles (10+ km)
Ceiling: at least 12,000 feet AGL
Clouds: few clouds at 1900 feet AGL
scattered clouds at 31000 feet AGL
Weather: no significant weather observed at this time

METAR text: NGFU 242100Z 01003KT 9999 SCT018TCU 31/25 Q1010
Conditions at: NGFU (FUNAFUTI TUVALU , FJ) observed 2100 UTC 24 March 2019
Temperature: 31.0°C (88°F)
Dewpoint: 25.0°C (77°F) [RH = 71%]
Pressure (altimeter): 29.82 inches Hg (1010.0 mb)
Winds: from the N (10 degrees) at 3 MPH (3 knots; 1.5 m/s)
Visibility: 6 or more miles (10+ km)
Ceiling: at least 12,000 feet AGL
Clouds: scattered clouds at 1800 feet AGL
Weather: no significant weather observed at this time

METAR text: NGFU 242000Z 36004KT 9999 FEW018TCU FEW018TCU BKN300 30/25 Q101 0
Conditions at: NGFU (FUNAFUTI TUVALU , FJ) observed 2000 UTC 24 March 2019
Temperature: 30.0°C (86°F)
Dewpoint: 25.0°C (77°F) [RH = 75%]
Pressure (altimeter): missing
Winds: from the N (360 degrees) at 5 MPH (4 knots; 2.1 m/s)
Visibility: 6 or more miles (10+ km)
Ceiling: 30000 feet AGL
Clouds: few clouds at 1800 feet AGL
few clouds at 1800 feet AGL
broken clouds at 30000 feet AGL
Weather: no significant weather observed at this time

METAR text: NGFU 241900Z VRB02KT 9999 FEW020 BKN300 29/25 Q1010
Conditions at: NGFU (FUNAFUTI TUVALU , FJ) observed 1900 UTC 24 March 2019
Temperature: 29.0°C (84°F)
Dewpoint: 25.0°C (77°F) [RH = 79%]
Pressure (altimeter): 29.82 inches Hg (1010.0 mb)
Winds: variable direction winds at 2 MPH (2 knots; 1.0 m/s)
Visibility: 6 or more miles (10+ km)
Ceiling: 30000 feet AGL
Clouds: few clouds at 2000 feet AGL
broken clouds at 30000 feet AGL
Weather: no significant weather observed at this time

METAR text: NGFU 241800Z 01003KT 9999 FEW020 SCT310 28/25 Q1009
Conditions at: NGFU (FUNAFUTI TUVALU , FJ) observed 1800 UTC 24 March 2019
Temperature: 28.0°C (82°F)
Dewpoint: 25.0°C (77°F) [RH = 84%]
Pressure (altimeter): 29.79 inches Hg (1009.0 mb)
Winds: from the N (10 degrees) at 3 MPH (3 knots; 1.5 m/s)
Visibility: 6 or more miles (10+ km)
Ceiling: at least 12,000 feet AGL
Clouds: few clouds at 2000 feet AGL
scattered clouds at 31000 feet AGL
Weather: no significant weather observed at this time

METAR text: NGFU 241700Z VRB01KT 9999 FEW020 28/25 Q1009
Conditions at: NGFU (FUNAFUTI TUVALU , FJ) observed 1700 UTC 24 March 2019
Temperature: 28.0°C (82°F)
Dewpoint: 25.0°C (77°F) [RH = 84%]
Pressure (altimeter): 29.79 inches Hg (1009.0 mb)
Winds: variable direction winds at 1 MPH (1 knots; 0.5 m/s)
Visibility: 6 or more miles (10+ km)
Ceiling: at least 12,000 feet AGL
Clouds: few clouds at 2000 feet AGL
Weather: no significant weather observed at this time

METAR text: NGFU 241600Z 02003KT 9999 FEW020 29/25 Q1008
Conditions at: NGFU (FUNAFUTI TUVALU , FJ) observed 1600 UTC 24 March 2019
Temperature: 29.0°C (84°F)
Dewpoint: 25.0°C (77°F) [RH = 79%]
Pressure (altimeter): 29.76 inches Hg (1008.0 mb)
Winds: from the NNE (20 degrees) at 3 MPH (3 knots; 1.5 m/s)
Visibility: 6 or more miles (10+ km)
Ceiling: at least 12,000 feet AGL
Clouds: few clouds at 2000 feet AGL
Weather: no significant weather observed at this time

METAR text: NGFU 241500Z VRB02KT 9999 FEW020 29/25 Q1008
Conditions at: NGFU (FUNAFUTI TUVALU , FJ) observed 1500 UTC 24 March 2019
Temperature: 29.0°C (84°F)
Dewpoint: 25.0°C (77°F) [RH = 79%]
Pressure (altimeter): 29.76 inches Hg (1008.0 mb)
Winds: variable direction winds at 2 MPH (2 knots; 1.0 m/s)
Visibility: 6 or more miles (10+ km)
Ceiling: at least 12,000 feet AGL
Clouds: few clouds at 2000 feet AGL
Weather: no significant weather observed at this time

METAR text: NGFU 241400Z VRB02KT 9999 FEW018TCU 29/25 Q1008
Conditions at: NGFU (FUNAFUTI TUVALU , FJ) observed 1400 UTC 24 March 2019
Temperature: 29.0°C (84°F)
Dewpoint: 25.0°C (77°F) [RH = 79%]
Pressure (altimeter): 29.76 inches Hg (1008.0 mb)
Winds: variable direction winds at 2 MPH (2 knots; 1.0 m/s)
Visibility: 6 or more miles (10+ km)
Ceiling: at least 12,000 feet AGL
Clouds: few clouds at 1800 feet AGL
Weather: no significant weather observed at this time

METAR text: NGFU 241300Z 04004KT 9999 SCT020 29/26 Q1009
Conditions at: NGFU (FUNAFUTI TUVALU , FJ) observed 1300 UTC 24 March 2019
Temperature: 29.0°C (84°F)
Dewpoint: 26.0°C (79°F) [RH = 84%]
Pressure (altimeter): 29.79 inches Hg (1009.0 mb)
Winds: from the NE (40 degrees) at 5 MPH (4 knots; 2.1 m/s)
Visibility: 6 or more miles (10+ km)
Ceiling: at least 12,000 feet AGL
Clouds: scattered clouds at 2000 feet AGL
Weather: no significant weather observed at this time

METAR text: NGFU 241200Z VRB01KT 9999 FEW020 29/24 Q1010
Conditions at: NGFU (FUNAFUTI TUVALU , FJ) observed 1200 UTC 24 March 2019
Temperature: 29.0°C (84°F)
Dewpoint: 24.0°C (75°F) [RH = 74%]
Pressure (altimeter): 29.82 inches Hg (1010.0 mb)
Winds: variable direction winds at 1 MPH (1 knots; 0.5 m/s)
Visibility: 6 or more miles (10+ km)
Ceiling: at least 12,000 feet AGL
Clouds: few clouds at 2000 feet AGL
Weather: no significant weather observed at this time

METAR text: NGFU 241100Z 00000KT 9999 FEW020 29/24 Q1010
Conditions at: NGFU (FUNAFUTI TUVALU , FJ) observed 1100 UTC 24 March 2019
Temperature: 29.0°C (84°F)
Dewpoint: 24.0°C (75°F) [RH = 74%]
Pressure (altimeter): 29.82 inches Hg (1010.0 mb)
Winds: calm
Visibility: 6 or more miles (10+ km)
Ceiling: at least 12,000 feet AGL
Clouds: few clouds at 2000 feet AGL
Weather: no significant weather observed at this time

METAR text: NGFU 241000Z 00000KT 9999 FEW020 29/25 Q1010
Conditions at: NGFU (FUNAFUTI TUVALU , FJ) observed 1000 UTC 24 March 2019
Temperature: 29.0°C (84°F)
Dewpoint: 25.0°C (77°F) [RH = 79%]
Pressure (altimeter): 29.82 inches Hg (1010.0 mb)
Winds: calm
Visibility: 6 or more miles (10+ km)
Ceiling: at least 12,000 feet AGL
Clouds: few clouds at 2000 feet AGL
Weather: no significant weather observed at this time

METAR text: NGFU 240900Z 00000KT 9999 FEW020 29/25 Q1010
Conditions at: NGFU (FUNAFUTI TUVALU , FJ) observed 0900 UTC 24 March 2019
Temperature: 29.0°C (84°F)
Dewpoint: 25.0°C (77°F) [RH = 79%]
Pressure (altimeter): 29.82 inches Hg (1010.0 mb)
Winds: calm
Visibility: 6 or more miles (10+ km)
Ceiling: at least 12,000 feet AGL
Clouds: few clouds at 2000 feet AGL
Weather: no significant weather observed at this time

METAR text: NGFU 240800Z VRB02KT 9999 FEW020 29/25 Q1010
Conditions at: NGFU (FUNAFUTI TUVALU , FJ) observed 0800 UTC 24 March 2019
Temperature: 29.0°C (84°F)
Dewpoint: 25.0°C (77°F) [RH = 79%]
Pressure (altimeter): 29.82 inches Hg (1010.0 mb)
Winds: variable direction winds at 2 MPH (2 knots; 1.0 m/s)
Visibility: 6 or more miles (10+ km)
Ceiling: at least 12,000 feet AGL
Clouds: few clouds at 2000 feet AGL
Weather: no significant weather observed at this time

METAR text: NGFU 240700Z VRB02KT 9999 FEW020 31/25 Q1008
Conditions at: NGFU (FUNAFUTI TUVALU , FJ) observed 0700 UTC 24 March 2019
Temperature: 31.0°C (88°F)
Dewpoint: 25.0°C (77°F) [RH = 71%]
Pressure (altimeter): 29.76 inches Hg (1008.0 mb)
Winds: variable direction winds at 2 MPH (2 knots; 1.0 m/s)
Visibility: 6 or more miles (10+ km)
Ceiling: at least 12,000 feet AGL
Clouds: few clouds at 2000 feet AGL
Weather: no significant weather observed at this time

Forecast for: NGFU (FUNAFUTI TUVALU , FJ)
Text: TAF NGFU 251703Z 2518/2618 35005KT 9999 FEW018
Forecast period: 1800 UTC 25 March 2019 to 1800 UTC 26 March 2019
Forecast type: FROM: standard forecast or significant change
Winds: from the N (350 degrees) at 6 MPH (5 knots; 2.6 m/s)
Visibility: 6 or more miles 10+ km)
Ceiling: at least 12,000 feet AGL
Clouds: few clouds at 1800 feet AGL
Weather: no significant weather forecast for this period